sensor_id;sensor_type;location;lat;lon;timestamp;pressure;altitude;pressure_sealevel;temperature;humidity
38616;BME280;24370;51.986;4.666;2024-03-02T00:01:54;99832.75;;;16.19;46.07
38616;BME280;24370;51.986;4.666;2024-03-02T00:04:20;99829.44;;;16.68;46.02
38616;BME280;24370;51.986;4.666;2024-03-02T00:06:45;99838.19;;;16.16;46.46
38616;BME280;24370;51.986;4.666;2024-03-02T00:09:11;99843.91;;;16.61;46.01
38616;BME280;24370;51.986;4.666;2024-03-02T00:11:37;99841.66;;;16.17;46.71
38616;BME280;24370;51.986;4.666;2024-03-02T00:14:03;99854.41;;;17.13;44.39
38616;BME280;24370;51.986;4.666;2024-03-02T00:16:32;99852.88;;;16.39;46.08
38616;BME280;24370;51.986;4.666;2024-03-02T00:19:05;99859.22;;;16.35;46.50
38616;BME280;24370;51.986;4.666;2024-03-02T00:21:31;99860.13;;;15.80;47.54
38616;BME280;24370;51.986;4.666;2024-03-02T00:23:57;99867.47;;;16.47;46.16
38616;BME280;24370;51.986;4.666;2024-03-02T00:26:23;99867.50;;;15.53;48.07
38616;BME280;24370;51.986;4.666;2024-03-02T00:28:48;99863.84;;;16.13;46.63
38616;BME280;24370;51.986;4.666;2024-03-02T00:31:16;99871.94;;;16.27;47.14
38616;BME280;24370;51.986;4.666;2024-03-02T00:33:49;99864.78;;;16.11;46.49
38616;BME280;24370;51.986;4.666;2024-03-02T00:36:15;99865.88;;;15.69;47.31
38616;BME280;24370;51.986;4.666;2024-03-02T00:38:52;99856.63;;;16.53;45.84
38616;BME280;24370;51.986;4.666;2024-03-02T00:41:24;99858.00;;;16.60;45.61
38616;BME280;24370;51.986;4.666;2024-03-02T00:44:03;99851.47;;;16.50;45.47
38616;BME280;24370;51.986;4.666;2024-03-02T00:46:34;99858.19;;;16.20;46.01
38616;BME280;24370;51.986;4.666;2024-03-02T00:49:02;99837.63;;;16.09;45.83
38616;BME280;24370;51.986;4.666;2024-03-02T00:51:29;99852.09;;;15.43;47.04
38616;BME280;24370;51.986;4.666;2024-03-02T00:54:00;99853.75;;;16.03;46.08
38616;BME280;24370;51.986;4.666;2024-03-02T00:56:26;99854.28;;;16.47;45.25
38616;BME280;24370;51.986;4.666;2024-03-02T00:58:52;99866.06;;;17.09;44.09
38616;BME280;24370;51.986;4.666;2024-03-02T01:01:18;99875.97;;;15.78;46.92
38616;BME280;24370;51.986;4.666;2024-03-02T01:03:45;99866.53;;;16.48;45.56
38616;BME280;24370;51.986;4.666;2024-03-02T01:06:10;99878.63;;;16.34;44.93
38616;BME280;24370;51.986;4.666;2024-03-02T01:08:36;99869.91;;;16.15;45.37
38616;BME280;24370;51.986;4.666;2024-03-02T01:11:02;99858.47;;;16.51;44.75
38616;BME280;24370;51.986;4.666;2024-03-02T01:13:31;99852.34;;;16.50;44.29
38616;BME280;24370;51.986;4.666;2024-03-02T01:15:57;99862.16;;;16.11;45.14
38616;BME280;24370;51.986;4.666;2024-03-02T01:18:22;99845.56;;;16.79;43.99
38616;BME280;24370;51.986;4.666;2024-03-02T01:20:48;99847.91;;;17.03;43.84
38616;BME280;24370;51.986;4.666;2024-03-02T01:23:17;99837.03;;;17.59;42.25
38616;BME280;24370;51.986;4.666;2024-03-02T01:25:42;99859.50;;;17.34;42.65
38616;BME280;24370;51.986;4.666;2024-03-02T01:28:08;99875.16;;;17.37;43.27
38616;BME280;24370;51.986;4.666;2024-03-02T01:30:33;99871.81;;;17.00;43.61
38616;BME280;24370;51.986;4.666;2024-03-02T01:33:00;99883.13;;;17.20;43.64
38616;BME280;24370;51.986;4.666;2024-03-02T01:35:25;99898.66;;;15.83;45.94
38616;BME280;24370;51.986;4.666;2024-03-02T01:37:51;99886.16;;;16.05;45.47
38616;BME280;24370;51.986;4.666;2024-03-02T01:40:17;99868.34;;;16.10;45.29
38616;BME280;24370;51.986;4.666;2024-03-02T01:42:43;99862.88;;;17.20;42.97
38616;BME280;24370;51.986;4.666;2024-03-02T01:45:08;99879.81;;;17.32;43.01
38616;BME280;24370;51.986;4.666;2024-03-02T01:47:34;99844.16;;;17.57;42.48
38616;BME280;24370;51.986;4.666;2024-03-02T01:50:00;99866.91;;;16.40;45.09
38616;BME280;24370;51.986;4.666;2024-03-02T01:52:25;99886.53;;;16.87;43.98
38616;BME280;24370;51.986;4.666;2024-03-02T01:54:51;99892.94;;;16.65;44.90
38616;BME280;24370;51.986;4.666;2024-03-02T01:57:17;99895.63;;;16.09;45.95
38616;BME280;24370;51.986;4.666;2024-03-02T01:59:43;99883.63;;;16.93;43.81
38616;BME280;24370;51.986;4.666;2024-03-02T02:02:08;99886.22;;;16.58;45.14
38616;BME280;24370;51.986;4.666;2024-03-02T02:04:34;99877.63;;;15.62;46.42
38616;BME280;24370;51.986;4.666;2024-03-02T02:07:00;99884.03;;;16.31;44.93
38616;BME280;24370;51.986;4.666;2024-03-02T02:09:25;99882.22;;;16.68;44.36
38616;BME280;24370;51.986;4.666;2024-03-02T02:11:51;99874.44;;;17.18;43.54
38616;BME280;24370;51.986;4.666;2024-03-02T02:14:17;99879.88;;;16.44;44.60
38616;BME280;24370;51.986;4.666;2024-03-02T02:16:42;99880.53;;;17.02;43.64
38616;BME280;24370;51.986;4.666;2024-03-02T02:19:08;99893.53;;;16.53;44.69
38616;BME280;24370;51.986;4.666;2024-03-02T02:21:34;99890.75;;;16.73;44.19
38616;BME280;24370;51.986;4.666;2024-03-02T02:23:59;99880.66;;;17.17;44.11
38616;BME280;24370;51.986;4.666;2024-03-02T02:26:26;99897.06;;;15.98;45.42
38616;BME280;24370;51.986;4.666;2024-03-02T02:28:51;99900.78;;;16.30;44.78
38616;BME280;24370;51.986;4.666;2024-03-02T02:31:17;99899.72;;;15.77;45.75
38616;BME280;24370;51.986;4.666;2024-03-02T02:33:42;99901.75;;;16.10;46.01
38616;BME280;24370;51.986;4.666;2024-03-02T02:36:08;99904.63;;;15.47;46.34
38616;BME280;24370;51.986;4.666;2024-03-02T02:38:38;99907.31;;;15.05;47.81
38616;BME280;24370;51.986;4.666;2024-03-02T02:41:04;99899.91;;;16.12;45.51
38616;BME280;24370;51.986;4.666;2024-03-02T02:43:30;99899.75;;;15.58;46.24
38616;BME280;24370;51.986;4.666;2024-03-02T02:45:55;99892.47;;;15.63;46.01
38616;BME280;24370;51.986;4.666;2024-03-02T02:48:20;99895.88;;;15.86;46.16
38616;BME280;24370;51.986;4.666;2024-03-02T02:50:46;99893.81;;;15.92;45.88
38616;BME280;24370;51.986;4.666;2024-03-02T02:53:11;99890.91;;;15.59;46.43
38616;BME280;24370;51.986;4.666;2024-03-02T02:55:39;99886.78;;;16.65;44.01
38616;BME280;24370;51.986;4.666;2024-03-02T02:58:14;99883.78;;;16.72;44.03
38616;BME280;24370;51.986;4.666;2024-03-02T03:00:40;99900.13;;;16.07;44.32
38616;BME280;24370;51.986;4.666;2024-03-02T03:03:05;99896.50;;;16.64;44.19
38616;BME280;24370;51.986;4.666;2024-03-02T03:05:30;99882.97;;;17.23;42.82
38616;BME280;24370;51.986;4.666;2024-03-02T03:07:56;99889.81;;;17.43;42.26
38616;BME280;24370;51.986;4.666;2024-03-02T03:10:22;99887.53;;;16.32;43.67
38616;BME280;24370;51.986;4.666;2024-03-02T03:12:48;99895.19;;;16.19;44.56
38616;BME280;24370;51.986;4.666;2024-03-02T03:15:14;99898.28;;;17.50;42.13
38616;BME280;24370;51.986;4.666;2024-03-02T03:17:41;99903.94;;;16.56;43.91
38616;BME280;24370;51.986;4.666;2024-03-02T03:20:07;99896.88;;;17.60;41.74
38616;BME280;24370;51.986;4.666;2024-03-02T03:22:35;99898.13;;;17.19;42.42
38616;BME280;24370;51.986;4.666;2024-03-02T03:25:01;99902.69;;;17.16;42.49
38616;BME280;24370;51.986;4.666;2024-03-02T03:27:27;99902.41;;;17.71;41.79
38616;BME280;24370;51.986;4.666;2024-03-02T03:29:52;99899.16;;;16.27;44.21
38616;BME280;24370;51.986;4.666;2024-03-02T03:32:17;99907.97;;;16.63;44.20
38616;BME280;24370;51.986;4.666;2024-03-02T03:34:43;99910.03;;;16.39;44.22
38616;BME280;24370;51.986;4.666;2024-03-02T03:37:08;99917.94;;;16.93;43.01
38616;BME280;24370;51.986;4.666;2024-03-02T03:39:35;99906.16;;;15.71;45.41
38616;BME280;24370;51.986;4.666;2024-03-02T03:42:03;99930.59;;;15.35;46.25
38616;BME280;24370;51.986;4.666;2024-03-02T03:44:29;99914.28;;;16.24;44.74
38616;BME280;24370;51.986;4.666;2024-03-02T03:46:54;99911.66;;;16.41;43.66
38616;BME280;24370;51.986;4.666;2024-03-02T03:49:20;99917.94;;;16.39;43.89
38616;BME280;24370;51.986;4.666;2024-03-02T03:51:45;99920.56;;;16.02;44.78
38616;BME280;24370;51.986;4.666;2024-03-02T03:54:11;99922.09;;;16.44;43.41
38616;BME280;24370;51.986;4.666;2024-03-02T03:56:37;99912.41;;;16.26;44.02
38616;BME280;24370;51.986;4.666;2024-03-02T03:59:02;99921.53;;;16.55;42.85
38616;BME280;24370;51.986;4.666;2024-03-02T04:01:28;99916.84;;;16.25;43.44
38616;BME280;24370;51.986;4.666;2024-03-02T04:03:54;99927.03;;;16.14;43.27
38616;BME280;24370;51.986;4.666;2024-03-02T04:06:20;99924.91;;;16.76;42.53
38616;BME280;24370;51.986;4.666;2024-03-02T04:08:45;99924.69;;;16.27;43.37
38616;BME280;24370;51.986;4.666;2024-03-02T04:11:10;99925.91;;;16.37;43.28
38616;BME280;24370;51.986;4.666;2024-03-02T04:13:36;99936.44;;;17.10;41.99
38616;BME280;24370;51.986;4.666;2024-03-02T04:16:01;99935.00;;;17.21;41.75
38616;BME280;24370;51.986;4.666;2024-03-02T04:18:29;99929.44;;;17.09;41.68
38616;BME280;24370;51.986;4.666;2024-03-02T04:20:54;99930.59;;;16.32;43.70
38616;BME280;24370;51.986;4.666;2024-03-02T04:23:20;99933.78;;;16.56;42.67
38616;BME280;24370;51.986;4.666;2024-03-02T04:25:45;99929.72;;;17.21;41.65
38616;BME280;24370;51.986;4.666;2024-03-02T04:28:10;99932.63;;;15.68;43.96
38616;BME280;24370;51.986;4.666;2024-03-02T04:30:37;99929.53;;;16.17;43.72
38616;BME280;24370;51.986;4.666;2024-03-02T04:33:03;99930.66;;;17.20;41.42
38616;BME280;24370;51.986;4.666;2024-03-02T04:35:29;99932.25;;;16.89;41.54
38616;BME280;24370;51.986;4.666;2024-03-02T04:37:54;99928.00;;;16.31;42.90
38616;BME280;24370;51.986;4.666;2024-03-02T04:40:20;99936.56;;;17.07;41.95
38616;BME280;24370;51.986;4.666;2024-03-02T04:42:45;99934.06;;;16.69;42.16
38616;BME280;24370;51.986;4.666;2024-03-02T04:45:10;99934.81;;;16.71;42.16
38616;BME280;24370;51.986;4.666;2024-03-02T04:47:36;99940.44;;;17.00;41.54
38616;BME280;24370;51.986;4.666;2024-03-02T04:50:01;99940.91;;;17.08;41.34
38616;BME280;24370;51.986;4.666;2024-03-02T04:52:26;99945.47;;;17.40;41.22
38616;BME280;24370;51.986;4.666;2024-03-02T04:54:52;99954.03;;;16.00;43.39
38616;BME280;24370;51.986;4.666;2024-03-02T04:57:50;99955.41;;;16.45;42.83
38616;BME280;24370;51.986;4.666;2024-03-02T05:00:16;99963.44;;;16.61;42.32
38616;BME280;24370;51.986;4.666;2024-03-02T05:02:42;99966.19;;;16.77;41.79
38616;BME280;24370;51.986;4.666;2024-03-02T05:05:08;99961.16;;;17.25;40.91
38616;BME280;24370;51.986;4.666;2024-03-02T05:07:33;99957.94;;;16.66;42.14
38616;BME280;24370;51.986;4.666;2024-03-02T05:09:59;99960.72;;;17.00;42.02
38616;BME280;24370;51.986;4.666;2024-03-02T05:12:24;99949.91;;;17.39;41.21
38616;BME280;24370;51.986;4.666;2024-03-02T05:15:09;99950.69;;;17.91;39.61
38616;BME280;24370;51.986;4.666;2024-03-02T05:17:35;99956.78;;;17.93;39.59
38616;BME280;24370;51.986;4.666;2024-03-02T05:20:01;99958.38;;;17.62;39.84
38616;BME280;24370;51.986;4.666;2024-03-02T05:22:26;99964.00;;;16.32;42.70
38616;BME280;24370;51.986;4.666;2024-03-02T05:24:52;99962.56;;;16.98;41.32
38616;BME280;24370;51.986;4.666;2024-03-02T05:27:17;99969.59;;;16.06;42.73
38616;BME280;24370;51.986;4.666;2024-03-02T05:29:42;99967.41;;;16.53;41.40
38616;BME280;24370;51.986;4.666;2024-03-02T05:32:08;99969.38;;;16.84;41.95
38616;BME280;24370;51.986;4.666;2024-03-02T05:34:33;99988.50;;;16.53;41.96
38616;BME280;24370;51.986;4.666;2024-03-02T05:37:00;99984.66;;;16.03;42.74
38616;BME280;24370;51.986;4.666;2024-03-02T05:39:31;99988.38;;;16.18;43.12
38616;BME280;24370;51.986;4.666;2024-03-02T05:41:56;99981.69;;;16.10;43.15
38616;BME280;24370;51.986;4.666;2024-03-02T05:44:22;99981.25;;;16.75;42.08
38616;BME280;24370;51.986;4.666;2024-03-02T05:46:47;99992.72;;;16.19;42.86
38616;BME280;24370;51.986;4.666;2024-03-02T05:49:13;99980.63;;;16.34;43.15
38616;BME280;24370;51.986;4.666;2024-03-02T05:51:38;99985.22;;;16.48;42.71
38616;BME280;24370;51.986;4.666;2024-03-02T05:54:04;99980.47;;;16.73;42.40
38616;BME280;24370;51.986;4.666;2024-03-02T05:56:29;99976.88;;;16.74;41.93
38616;BME280;24370;51.986;4.666;2024-03-02T05:58:54;99993.78;;;15.96;43.49
38616;BME280;24370;51.986;4.666;2024-03-02T06:01:34;99981.94;;;16.98;41.25
38616;BME280;24370;51.986;4.666;2024-03-02T06:03:59;99991.63;;;16.61;42.22
38616;BME280;24370;51.986;4.666;2024-03-02T06:06:25;99981.06;;;17.66;40.39
38616;BME280;24370;51.986;4.666;2024-03-02T06:08:51;99975.78;;;17.15;41.60
38616;BME280;24370;51.986;4.666;2024-03-02T06:11:17;99990.78;;;17.15;41.21
38616;BME280;24370;51.986;4.666;2024-03-02T06:13:42;99989.81;;;15.87;43.00
38616;BME280;24370;51.986;4.666;2024-03-02T06:16:08;99994.78;;;16.50;41.47
38616;BME280;24370;51.986;4.666;2024-03-02T06:18:34;99988.91;;;16.99;40.99
38616;BME280;24370;51.986;4.666;2024-03-02T06:20:59;99996.84;;;16.05;42.29
38616;BME280;24370;51.986;4.666;2024-03-02T06:23:26;99992.00;;;16.90;41.43
38616;BME280;24370;51.986;4.666;2024-03-02T06:25:52;99996.72;;;17.01;40.78
38616;BME280;24370;51.986;4.666;2024-03-02T06:28:17;100004.75;;;16.43;42.37
38616;BME280;24370;51.986;4.666;2024-03-02T06:30:43;100004.13;;;16.38;42.63
38616;BME280;24370;51.986;4.666;2024-03-02T06:33:09;100008.06;;;16.10;42.30
38616;BME280;24370;51.986;4.666;2024-03-02T06:35:34;100007.66;;;16.56;41.97
38616;BME280;24370;51.986;4.666;2024-03-02T06:38:00;100007.16;;;17.21;41.03
38616;BME280;24370;51.986;4.666;2024-03-02T06:40:26;100015.31;;;16.43;41.67
38616;BME280;24370;51.986;4.666;2024-03-02T06:42:51;100015.03;;;15.92;43.38
38616;BME280;24370;51.986;4.666;2024-03-02T06:45:17;100006.66;;;16.59;41.21
38616;BME280;24370;51.986;4.666;2024-03-02T06:47:42;100007.84;;;16.90;41.51
38616;BME280;24370;51.986;4.666;2024-03-02T06:50:08;100015.53;;;16.75;41.37
38616;BME280;24370;51.986;4.666;2024-03-02T06:52:34;100019.72;;;15.24;44.00
38616;BME280;24370;51.986;4.666;2024-03-02T06:55:00;100012.19;;;16.35;42.19
38616;BME280;24370;51.986;4.666;2024-03-02T06:57:25;100013.41;;;16.28;41.91
38616;BME280;24370;51.986;4.666;2024-03-02T06:59:50;100018.88;;;16.42;41.74
38616;BME280;24370;51.986;4.666;2024-03-02T07:02:20;100032.22;;;15.39;43.19
38616;BME280;24370;51.986;4.666;2024-03-02T07:04:46;100032.84;;;16.06;42.52
38616;BME280;24370;51.986;4.666;2024-03-02T07:07:12;100025.97;;;15.42;43.41
38616;BME280;24370;51.986;4.666;2024-03-02T07:09:38;100029.72;;;16.36;41.34
38616;BME280;24370;51.986;4.666;2024-03-02T07:12:03;100039.06;;;15.85;42.01
38616;BME280;24370;51.986;4.666;2024-03-02T07:14:29;100041.53;;;16.08;41.57
38616;BME280;24370;51.986;4.666;2024-03-02T07:17:13;100047.53;;;16.31;41.10
38616;BME280;24370;51.986;4.666;2024-03-02T07:19:38;100050.16;;;16.31;41.79
38616;BME280;24370;51.986;4.666;2024-03-02T07:22:07;100044.59;;;15.78;42.55
38616;BME280;24370;51.986;4.666;2024-03-02T07:24:42;100044.41;;;16.61;40.92
38616;BME280;24370;51.986;4.666;2024-03-02T07:27:08;100054.22;;;16.19;41.41
38616;BME280;24370;51.986;4.666;2024-03-02T07:29:34;100049.63;;;16.80;40.41
38616;BME280;24370;51.986;4.666;2024-03-02T07:32:00;100052.47;;;16.20;40.97
38616;BME280;24370;51.986;4.666;2024-03-02T07:34:25;100045.41;;;16.95;40.51
38616;BME280;24370;51.986;4.666;2024-03-02T07:36:50;100061.78;;;16.27;41.21
38616;BME280;24370;51.986;4.666;2024-03-02T07:39:16;100057.19;;;15.92;42.17
38616;BME280;24370;51.986;4.666;2024-03-02T07:41:42;100055.72;;;17.19;40.53
38616;BME280;24370;51.986;4.666;2024-03-02T07:44:07;100063.50;;;16.28;41.85
38616;BME280;24370;51.986;4.666;2024-03-02T07:46:32;100054.75;;;17.72;39.16
38616;BME280;24370;51.986;4.666;2024-03-02T07:48:58;100057.00;;;17.10;39.98
38616;BME280;24370;51.986;4.666;2024-03-02T07:51:23;100066.91;;;16.68;40.99
38616;BME280;24370;51.986;4.666;2024-03-02T07:53:49;100073.03;;;16.50;41.12
38616;BME280;24370;51.986;4.666;2024-03-02T07:56:14;100067.84;;;16.29;42.30
38616;BME280;24370;51.986;4.666;2024-03-02T07:58:46;100064.94;;;16.35;41.71
38616;BME280;24370;51.986;4.666;2024-03-02T08:01:13;100067.78;;;16.11;42.30
38616;BME280;24370;51.986;4.666;2024-03-02T08:03:38;100068.72;;;15.90;43.50
38616;BME280;24370;51.986;4.666;2024-03-02T08:06:04;100069.81;;;16.05;42.30
38616;BME280;24370;51.986;4.666;2024-03-02T08:08:29;100068.97;;;16.23;42.32
38616;BME280;24370;51.986;4.666;2024-03-02T08:10:55;100067.00;;;15.89;42.89
38616;BME280;24370;51.986;4.666;2024-03-02T08:13:20;100075.53;;;16.15;42.09
38616;BME280;24370;51.986;4.666;2024-03-02T08:15:46;100078.03;;;16.56;41.67
38616;BME280;24370;51.986;4.666;2024-03-02T08:18:12;100071.16;;;16.14;42.17
38616;BME280;24370;51.986;4.666;2024-03-02T08:20:37;100068.06;;;15.85;43.13
38616;BME280;24370;51.986;4.666;2024-03-02T08:23:03;100076.31;;;16.36;42.28
38616;BME280;24370;51.986;4.666;2024-03-02T08:25:31;100069.00;;;16.03;42.10
38616;BME280;24370;51.986;4.666;2024-03-02T08:27:57;100067.28;;;16.02;43.03
38616;BME280;24370;51.986;4.666;2024-03-02T08:30:23;100063.50;;;16.28;42.82
38616;BME280;24370;51.986;4.666;2024-03-02T08:32:48;100057.91;;;16.72;41.43
38616;BME280;24370;51.986;4.666;2024-03-02T08:35:14;100058.53;;;16.01;43.18
38616;BME280;24370;51.986;4.666;2024-03-02T08:37:41;100053.56;;;15.95;43.00
38616;BME280;24370;51.986;4.666;2024-03-02T08:40:08;100046.03;;;17.00;40.87
38616;BME280;24370;51.986;4.666;2024-03-02T08:42:33;100056.84;;;15.80;43.09
38616;BME280;24370;51.986;4.666;2024-03-02T08:44:59;100055.72;;;16.63;41.47
38616;BME280;24370;51.986;4.666;2024-03-02T08:47:26;100062.78;;;16.43;41.52
38616;BME280;24370;51.986;4.666;2024-03-02T08:49:52;100056.31;;;17.24;40.76
38616;BME280;24370;51.986;4.666;2024-03-02T08:52:18;100067.00;;;17.03;41.01
38616;BME280;24370;51.986;4.666;2024-03-02T08:54:43;100063.75;;;16.98;40.21
38616;BME280;24370;51.986;4.666;2024-03-02T08:57:09;100063.44;;;17.74;39.38
38616;BME280;24370;51.986;4.666;2024-03-02T08:59:34;100076.91;;;16.42;42.62
38616;BME280;24370;51.986;4.666;2024-03-02T09:02:00;100066.31;;;17.17;40.66
38616;BME280;24370;51.986;4.666;2024-03-02T09:04:25;100088.44;;;15.59;43.63
38616;BME280;24370;51.986;4.666;2024-03-02T09:06:50;100077.69;;;15.86;42.99
38616;BME280;24370;51.986;4.666;2024-03-02T09:09:16;100070.31;;;17.26;40.91
38616;BME280;24370;51.986;4.666;2024-03-02T09:11:41;100069.34;;;17.79;40.17
38616;BME280;24370;51.986;4.666;2024-03-02T09:14:07;100081.03;;;16.67;42.01
38616;BME280;24370;51.986;4.666;2024-03-02T09:16:32;100079.72;;;17.49;40.48
38616;BME280;24370;51.986;4.666;2024-03-02T09:18:58;100092.53;;;17.22;40.42
38616;BME280;24370;51.986;4.666;2024-03-02T09:21:23;100080.00;;;17.08;40.48
38616;BME280;24370;51.986;4.666;2024-03-02T09:23:48;100088.63;;;17.29;40.11
38616;BME280;24370;51.986;4.666;2024-03-02T09:26:14;100087.78;;;17.28;40.14
38616;BME280;24370;51.986;4.666;2024-03-02T09:28:43;100087.16;;;18.27;39.61
38616;BME280;24370;51.986;4.666;2024-03-02T09:31:09;100093.50;;;18.40;38.74
38616;BME280;24370;51.986;4.666;2024-03-02T09:33:34;100091.72;;;20.25;35.75
38616;BME280;24370;51.986;4.666;2024-03-02T09:36:00;100087.25;;;20.96;33.88
38616;BME280;24370;51.986;4.666;2024-03-02T09:38:25;100086.97;;;20.44;34.59
38616;BME280;24370;51.986;4.666;2024-03-02T09:40:51;100079.84;;;20.45;34.61
38616;BME280;24370;51.986;4.666;2024-03-02T09:43:16;100073.84;;;22.16;32.41
38616;BME280;24370;51.986;4.666;2024-03-02T09:45:42;100072.84;;;22.80;31.02
38616;BME280;24370;51.986;4.666;2024-03-02T09:48:08;100081.78;;;22.55;31.42
38616;BME280;24370;51.986;4.666;2024-03-02T09:50:33;100080.78;;;22.69;30.71
38616;BME280;24370;51.986;4.666;2024-03-02T09:52:59;100094.25;;;22.29;30.81
38616;BME280;24370;51.986;4.666;2024-03-02T09:55:24;100089.38;;;22.97;30.19
38616;BME280;24370;51.986;4.666;2024-03-02T09:57:50;100099.47;;;22.80;31.12
38616;BME280;24370;51.986;4.666;2024-03-02T10:00:16;100099.91;;;22.11;31.58
38616;BME280;24370;51.986;4.666;2024-03-02T10:02:43;100108.44;;;23.03;30.90
38616;BME280;24370;51.986;4.666;2024-03-02T10:05:11;100095.66;;;23.33;29.78
38616;BME280;24370;51.986;4.666;2024-03-02T10:07:40;100096.94;;;23.27;29.74
38616;BME280;24370;51.986;4.666;2024-03-02T10:10:13;100105.03;;;23.97;29.43
38616;BME280;24370;51.986;4.666;2024-03-02T10:12:39;100100.19;;;21.55;31.81
38616;BME280;24370;51.986;4.666;2024-03-02T10:15:05;100099.28;;;21.95;30.86
38616;BME280;24370;51.986;4.666;2024-03-02T10:17:33;100098.53;;;21.93;31.51
38616;BME280;24370;51.986;4.666;2024-03-02T10:19:59;100093.06;;;22.33;31.23
38616;BME280;24370;51.986;4.666;2024-03-02T10:22:24;100084.03;;;22.48;31.02
38616;BME280;24370;51.986;4.666;2024-03-02T10:24:51;100081.72;;;22.05;30.97
38616;BME280;24370;51.986;4.666;2024-03-02T10:27:22;100073.31;;;20.92;32.50
38616;BME280;24370;51.986;4.666;2024-03-02T10:29:49;100066.22;;;21.33;32.02
38616;BME280;24370;51.986;4.666;2024-03-02T10:32:15;100062.50;;;20.95;32.56
38616;BME280;24370;51.986;4.666;2024-03-02T10:34:42;100072.75;;;19.88;33.27
38616;BME280;24370;51.986;4.666;2024-03-02T10:37:11;100065.25;;;21.34;31.45
38616;BME280;24370;51.986;4.666;2024-03-02T10:39:37;100070.63;;;22.37;30.78
38616;BME280;24370;51.986;4.666;2024-03-02T10:42:05;100064.03;;;24.20;28.05
38616;BME280;24370;51.986;4.666;2024-03-02T10:44:31;100063.47;;;22.75;29.71
38616;BME280;24370;51.986;4.666;2024-03-02T10:47:00;100066.50;;;23.18;29.31
38616;BME280;24370;51.986;4.666;2024-03-02T10:49:27;100053.41;;;22.91;29.48
38616;BME280;24370;51.986;4.666;2024-03-02T10:51:54;100056.31;;;23.12;28.86
38616;BME280;24370;51.986;4.666;2024-03-02T10:54:19;100052.84;;;21.47;30.16
38616;BME280;24370;51.986;4.666;2024-03-02T10:56:51;100054.28;;;22.92;29.50
38616;BME280;24370;51.986;4.666;2024-03-02T10:59:27;100053.84;;;22.61;29.30
38616;BME280;24370;51.986;4.666;2024-03-02T11:01:59;100048.22;;;23.01;28.84
38616;BME280;24370;51.986;4.666;2024-03-02T11:04:27;100055.09;;;21.54;29.40
38616;BME280;24370;51.986;4.666;2024-03-02T11:06:58;100052.22;;;21.57;29.37
38616;BME280;24370;51.986;4.666;2024-03-02T11:09:27;100043.59;;;23.51;27.23
38616;BME280;24370;51.986;4.666;2024-03-02T11:11:59;100047.97;;;23.64;28.00
38616;BME280;24370;51.986;4.666;2024-03-02T11:14:26;100052.97;;;22.10;29.44
38616;BME280;24370;51.986;4.666;2024-03-02T11:17:00;100046.19;;;21.55;30.10
38616;BME280;24370;51.986;4.666;2024-03-02T11:19:27;100058.25;;;21.46;30.72
38616;BME280;24370;51.986;4.666;2024-03-02T11:21:52;100059.34;;;21.43;30.06
38616;BME280;24370;51.986;4.666;2024-03-02T11:26:47;100042.97;;;21.62;31.45
38616;BME280;24370;51.986;4.666;2024-03-02T11:32:17;100035.34;;;21.83;30.23
38616;BME280;24370;51.986;4.666;2024-03-02T11:34:45;100044.97;;;22.10;30.17
38616;BME280;24370;51.986;4.666;2024-03-02T11:37:13;100034.78;;;22.04;29.22
38616;BME280;24370;51.986;4.666;2024-03-02T11:39:43;100037.91;;;22.72;28.08
38616;BME280;24370;51.986;4.666;2024-03-02T11:42:11;100035.97;;;22.63;28.59
38616;BME280;24370;51.986;4.666;2024-03-02T11:44:37;100038.31;;;21.66;29.54
38616;BME280;24370;51.986;4.666;2024-03-02T11:47:07;100037.78;;;21.61;29.66
38616;BME280;24370;51.986;4.666;2024-03-02T11:49:38;100026.78;;;23.27;27.60
38616;BME280;24370;51.986;4.666;2024-03-02T11:52:04;100025.91;;;23.62;27.29
38616;BME280;24370;51.986;4.666;2024-03-02T11:54:32;100021.72;;;22.75;27.55
38616;BME280;24370;51.986;4.666;2024-03-02T11:57:02;100018.41;;;22.47;28.97
38616;BME280;24370;51.986;4.666;2024-03-02T11:59:31;100011.38;;;23.66;27.82
38616;BME280;24370;51.986;4.666;2024-03-02T12:01:58;100010.66;;;24.32;27.24
38616;BME280;24370;51.986;4.666;2024-03-02T12:04:23;100009.81;;;23.16;27.98
38616;BME280;24370;51.986;4.666;2024-03-02T12:06:56;100010.41;;;23.20;27.38
38616;BME280;24370;51.986;4.666;2024-03-02T12:09:25;100007.31;;;23.49;27.22
38616;BME280;24370;51.986;4.666;2024-03-02T12:12:04;100001.66;;;23.53;27.64
38616;BME280;24370;51.986;4.666;2024-03-02T12:14:31;100005.97;;;22.72;28.09
38616;BME280;24370;51.986;4.666;2024-03-02T12:16:56;99983.56;;;23.46;27.69
38616;BME280;24370;51.986;4.666;2024-03-02T12:19:24;99991.03;;;23.99;27.23
38616;BME280;24370;51.986;4.666;2024-03-02T12:21:49;99986.66;;;23.86;27.27
38616;BME280;24370;51.986;4.666;2024-03-02T12:24:15;99980.97;;;23.21;27.70
38616;BME280;24370;51.986;4.666;2024-03-02T12:26:43;99977.91;;;23.62;27.30
38616;BME280;24370;51.986;4.666;2024-03-02T12:29:09;99980.59;;;22.55;28.44
38616;BME280;24370;51.986;4.666;2024-03-02T12:31:34;99977.25;;;23.35;27.35
38616;BME280;24370;51.986;4.666;2024-03-02T12:34:01;99965.69;;;22.77;28.06
38616;BME280;24370;51.986;4.666;2024-03-02T12:36:27;99984.03;;;21.81;28.65
38616;BME280;24370;51.986;4.666;2024-03-02T12:38:53;99990.16;;;23.17;27.58
38616;BME280;24370;51.986;4.666;2024-03-02T12:41:20;99977.59;;;23.19;27.90
38616;BME280;24370;51.986;4.666;2024-03-02T12:43:46;99981.00;;;24.46;26.65
38616;BME280;24370;51.986;4.666;2024-03-02T12:46:12;99981.41;;;22.18;30.28
38616;BME280;24370;51.986;4.666;2024-03-02T12:48:37;99974.75;;;23.10;28.15
38616;BME280;24370;51.986;4.666;2024-03-02T12:51:06;99977.69;;;23.99;28.33
38616;BME280;24370;51.986;4.666;2024-03-02T12:53:31;99968.66;;;23.43;27.77
38616;BME280;24370;51.986;4.666;2024-03-02T12:55:56;99962.41;;;22.84;28.57
38616;BME280;24370;51.986;4.666;2024-03-02T12:58:22;99972.03;;;22.98;27.91